WetterOnline ( https://www.wetteronline.de )

Wetter aktuell Herford

Aktuelles Wetter: Bad Salzuflen (139m)

6-stündlich | Neueste Meldungen
Ortszeit Temperatur Wetter
Fr, 26.02. 1:00 8.9° C Regen
Do, 25.02. 19:00 13.2° C bewölkt
Do, 25.02. 13:00 16.5° C -
Do, 25.02. 7:00 10.6° C wolkenlos
Do, 25.02. 1:00 11.9° C wolkenlos
Mi, 24.02. 19:00 14.8° C wolkenlos
Mi, 24.02. 13:00 18.0° C wolkenlos
Mi, 24.02. 7:00 11.2° C bewölkt
Ortszeit Temperatur Wetter
Fr, 26.02. 2:00 6.5° C Regen
Fr, 26.02. 1:50 6.5° C Regen
Fr, 26.02. 1:40 7.0° C leichter Regen
Fr, 26.02. 1:30 8.0° C leichter Regen
Fr, 26.02. 1:20 8.0° C leichter Regen
Fr, 26.02. 1:10 8.6° C Sprühregen
Fr, 26.02. 1:00 8.9° C Regen
Fr, 26.02. 0:30 9.1° C leichter Regen
Fr, 26.02. 0:00 9.3° C Regen
Do, 25.02. 23:30 9.7° C Sprühregen
Do, 25.02. 23:00 9.9° C leichter Regen
Ortszeit Relative Feuchte Sichtweite
Fr, 26.02. 1:00 95% 4.1 km
Do, 25.02. 19:00 60% 35 km
Do, 25.02. 13:00 55% 26 km
Do, 25.02. 7:00 70% 23 km
Do, 25.02. 1:00 71% 23 km
Mi, 24.02. 19:00 56% 30 km
Mi, 24.02. 13:00 55% 30 km
Mi, 24.02. 7:00 77% 29 km
Ortszeit Relative Feuchte Sichtweite
Fr, 26.02. 2:00 86% 6 km
Fr, 26.02. 1:50 86% -
Fr, 26.02. 1:40 90% -
Fr, 26.02. 1:30 93% 10 km
Fr, 26.02. 1:20 93% -
Fr, 26.02. 1:10 94% -
Fr, 26.02. 1:00 95% 4.1 km
Fr, 26.02. 0:30 95% 5.0 km
Fr, 26.02. 0:00 93% 4.2 km
Do, 25.02. 23:30 92% 9 km
Do, 25.02. 23:00 89% 10 km
Ortszeit Niederschlagsmenge Niederschlagsart
Fr, 26.02. 1:00 2 l/m2 in 6 Std. Regen
Do, 25.02. 19:00 0.0 l/m2 in 12 Std. -
Do, 25.02. 13:00 0.0 l/m2 in 6 Std. -
Do, 25.02. 7:00 0.0 l/m2 in 12 Std. -
Do, 25.02. 1:00 0.0 l/m2 in 6 Std. -
Mi, 24.02. 19:00 0.0 l/m2 in 12 Std. -
Mi, 24.02. 13:00 0.0 l/m2 in 6 Std. -
Mi, 24.02. 7:00 0.0 l/m2 in 12 Std. -
Ortszeit Niederschlagsmenge Niederschlagsart
Fr, 26.02. 2:00 1.1 l/m2 in 1 Std. Regen
Fr, 26.02. 1:50 keine Meldung -
Fr, 26.02. 1:40 keine Meldung -
Fr, 26.02. 1:30 0.4 l/m2 in 1 Std. -
Fr, 26.02. 1:20 keine Meldung -
Fr, 26.02. 1:10 keine Meldung -
Fr, 26.02. 1:00 1.3 l/m2 in 1 Std. Regen
Fr, 26.02. 0:30 1.2 l/m2 in 1 Std. -
Fr, 26.02. 0:00 0.6 l/m2 in 1 Std. Regen
Do, 25.02. 23:30 0.1 l/m2 in 1 Std. -
Do, 25.02. 23:00 0.2 l/m2 in 1 Std. Regen
Ortszeit Stärke Spitze Richtung
km/h Bft. km/h Grad Sektor
Fr, 26.02. 1:00 7 2 25 360° N
Do, 25.02. 19:00 0 0 32 - -
Do, 25.02. 13:00 13 3 31 220° SW
Do, 25.02. 7:00 4 1 14 220° SW
Do, 25.02. 1:00 6 1 19 200° S
Mi, 24.02. 19:00 4 1 32 170° S
Mi, 24.02. 13:00 17 3 37 220° SW
Mi, 24.02. 7:00 7 2 14 220° SW
Ortszeit Stärke Spitze Richtung
km/h Bft. km/h Grad Sektor
Fr, 26.02. 2:00 15 3 28 340° N
Fr, 26.02. 1:50 15 3 - 340° N
Fr, 26.02. 1:40 11 2 - 330° NW
Fr, 26.02. 1:30 13 3 24 320° NW
Fr, 26.02. 1:20 13 3 - 320° NW
Fr, 26.02. 1:10 7 2 - 350° N
Fr, 26.02. 1:00 7 2 14 360° N
Fr, 26.02. 0:30 6 1 13 350° N
Fr, 26.02. 0:00 7 2 22 10° N
Do, 25.02. 23:30 9 2 20 10° N
Do, 25.02. 23:00 13 3 24 330° NW
Ortszeit Untergrenze Bedeckung Gattung
total tief tief mittel hoch
Fr, 26.02. 1:00 120 m 8/8 8/8 - - -
Do, 25.02. 19:00 1800 m 8/8 5/8 - - -
Do, 25.02. 13:00 - - - - - -
Do, 25.02. 7:00 - 0/8 0/8 - - -
Do, 25.02. 1:00 - 0/8 0/8 - - -
Mi, 24.02. 19:00 - 0/8 0/8 - - -
Mi, 24.02. 13:00 - 0/8 0/8 - - -
Mi, 24.02. 7:00 1260 m 8/8 5/8 - - -
Ortszeit Bedeckungsgrad in Achtel und Wolkenuntergrenze
Fr, 26.02. 2:00 5(300m) 7(1500m) 8(2100m)
Fr, 26.02. 1:50 5(300m) 7(1500m) 8(2100m)
Fr, 26.02. 1:40 2(90m) 7(270m) 8(1350m)
Fr, 26.02. 1:30 7(90m) 8(210m)
Fr, 26.02. 1:20 7(90m) 8(210m)
Fr, 26.02. 1:10 7(90m) 8(1500m)
Fr, 26.02. 1:00 2(120m) 7(1500m) 8(2100m)
Fr, 26.02. 0:30 2(1230m) 7(1500m) 8(2100m)
Fr, 26.02. 0:00 8(1440m) 7(1800m)
Do, 25.02. 23:30 3(1110m) 7(1410m)
Do, 25.02. 23:00 1(690m) 3(1140m) 7(1440m)
Ortszeit Luftdruck NN (hPa) Tendenz (hPa in 3 Std.)
Fr, 26.02. 1:00 1029 + 1,0
Do, 25.02. 19:00 1027 + 0,5
Do, 25.02. 13:00 1027 + 0,4
Do, 25.02. 7:00 1026 - 0,3
Do, 25.02. 1:00 1028 0,0
Mi, 24.02. 19:00 1028 - 0,6
Mi, 24.02. 13:00 1030 - 0,8
Mi, 24.02. 7:00 1031 - 0,7
Ortszeit Luftdruck NN (hPa) Tendenz (hPa in 3 Std.)
Fr, 26.02. 2:00 1030 + 0,9
Fr, 26.02. 1:50 1030 keine Meldung
Fr, 26.02. 1:40 1030 keine Meldung
Fr, 26.02. 1:30 1030 + 1,6
Fr, 26.02. 1:20 1030 keine Meldung
Fr, 26.02. 1:10 1029 keine Meldung
Fr, 26.02. 1:00 1029 + 1,0
Fr, 26.02. 0:30 1029 + 1,7
Fr, 26.02. 0:00 1029 + 2,0
Do, 25.02. 23:30 1029 + 1,8
Do, 25.02. 23:00 1029 + 1,8
Ortszeit Schneehöhe (cm)
Fr, 26.02. 1:00 0
Do, 25.02. 19:00 0
Do, 25.02. 13:00 0
Do, 25.02. 7:00 0
Do, 25.02. 1:00 0
Mi, 24.02. 19:00 0
Mi, 24.02. 13:00 0
Mi, 24.02. 7:00 0
Ortszeit Schneehöhe (cm)
Fr, 26.02. 2:00 0
Fr, 26.02. 1:50 0
Fr, 26.02. 1:40 0
Fr, 26.02. 1:30 0
Fr, 26.02. 1:20 0
Fr, 26.02. 1:10 0
Fr, 26.02. 1:00 0
Fr, 26.02. 0:30 0
Fr, 26.02. 0:00 0
Do, 25.02. 23:30 0
Do, 25.02. 23:00 0
Link zu dieser Seite / Seite empfehlen

Das Wetter in ...